Time;durP1;ratioP1;P1;durP2;ratioP2;P2;SDS_P1;SDS_P2;PMS_P1;PMS_P2;Temp;Humidity;BMP_temperature;BMP_pressure;BME280_temperature;BME280_humidity;BME280_pressure;Samples;Min_cycle;Max_cycle;Signal;HPM_P1;HPM_P2
2022/10/22 00:01:48;;;;;;;25.77;2.83;;;;;;;;;;6307400;22;20005;-88
2022/10/22 00:04:15;;;;;;;25.50;3.15;;;;;;;;;;6331575;22;20006;-88
2022/10/22 00:06:43;;;;;;;26.10;3.00;;;;;;;;;;6282127;22;20006;-88
2022/10/22 00:09:11;;;;;;;25.92;4.50;;;;;;;;;;6333629;22;20068;-88
2022/10/22 00:11:37;;;;;;;23.92;3.65;;;;;;;;;;6306697;22;20006;-88
2022/10/22 00:14:04;;;;;;;20.42;2.95;;;;;;;;;;6306548;22;20006;-87
2022/10/22 00:16:30;;;;;;;26.92;3.30;;;;;;;;;;6306193;22;20018;-88
2022/10/22 00:18:57;;;;;;;21.52;3.45;;;;;;;;;;6305876;22;20011;-88
2022/10/22 00:21:24;;;;;;;19.55;2.97;;;;;;;;;;6306178;22;20029;-88
2022/10/22 00:23:52;;;;;;;22.02;2.95;;;;;;;;;;6305944;22;20407;-89
2022/10/22 00:26:18;;;;;;;16.58;2.97;;;;;;;;;;6333629;22;19999;-87
2022/10/22 00:28:44;;;;;;;22.70;3.08;;;;;;;;;;6305547;22;20026;-88
2022/10/22 00:31:14;;;;;;;25.05;3.60;;;;;;;;;;6306121;22;20047;-88
2022/10/22 00:33:41;;;;;;;20.10;3.15;;;;;;;;;;6306654;22;20010;-88
2022/10/22 00:36:07;;;;;;;23.05;3.30;;;;;;;;;;6305832;22;20087;-88
2022/10/22 00:38:34;;;;;;;13.98;2.50;;;;;;;;;;6331961;22;20398;-88
2022/10/22 00:41:00;;;;;;;20.75;3.17;;;;;;;;;;6304989;22;20254;-88
2022/10/22 00:43:26;;;;;;;22.50;3.30;;;;;;;;;;6329137;22;20007;-88
2022/10/22 00:45:52;;;;;;;25.90;3.85;;;;;;;;;;6305232;22;20081;-87
2022/10/22 00:48:24;;;;;;;22.05;3.30;;;;;;;;;;6305323;22;20022;-88
2022/10/22 00:50:55;;;;;;;24.45;3.55;;;;;;;;;;6304925;22;20014;-88
2022/10/22 00:53:23;;;;;;;21.65;3.53;;;;;;;;;;6305268;22;20572;-88
2022/10/22 00:55:51;;;;;;;18.42;3.25;;;;;;;;;;6303415;22;20002;-88
2022/10/22 00:58:20;;;;;;;23.10;3.17;;;;;;;;;;6305217;22;20011;-87
2022/10/22 01:00:46;;;;;;;24.17;3.20;;;;;;;;;;6305419;22;20455;-87
2022/10/22 01:03:13;;;;;;;21.27;3.33;;;;;;;;;;6300804;22;20003;-88
2022/10/22 01:05:41;;;;;;;24.35;3.15;;;;;;;;;;6305479;22;20450;-88
2022/10/22 01:08:11;;;;;;;16.38;3.08;;;;;;;;;;6333346;22;20044;-88
2022/10/22 01:10:37;;;;;;;24.00;4.22;;;;;;;;;;6303399;22;20105;-87
2022/10/22 01:13:22;;;;;;;21.10;3.45;;;;;;;;;;6304059;22;20041;-88
2022/10/22 01:16:10;;;;;;;22.77;3.78;;;;;;;;;;6332469;22;19995;-88
2022/10/22 01:18:54;;;;;;;24.05;3.65;;;;;;;;;;6304009;22;20378;-88
2022/10/22 01:21:39;;;;;;;20.63;3.33;;;;;;;;;;6304801;22;20482;-88
2022/10/22 01:24:31;;;;;;;24.27;3.78;;;;;;;;;;6303527;22;20339;-86
2022/10/22 01:27:04;;;;;;;19.58;2.80;;;;;;;;;;6300550;22;20010;-86
2022/10/22 01:29:37;;;;;;;20.85;2.97;;;;;;;;;;6305345;22;20011;-88
2022/10/22 01:32:09;;;;;;;23.23;3.55;;;;;;;;;;6305172;22;20648;-88
2022/10/22 01:34:41;;;;;;;22.20;4.18;;;;;;;;;;6305124;22;20007;-88
2022/10/22 01:37:11;;;;;;;25.20;3.05;;;;;;;;;;6305148;22;20407;-88
2022/10/22 01:39:43;;;;;;;24.60;3.80;;;;;;;;;;6304693;22;20592;-88
2022/10/22 01:42:11;;;;;;;19.80;3.20;;;;;;;;;;6306366;22;20033;-88
2022/10/22 01:44:38;;;;;;;18.67;3.42;;;;;;;;;;6333246;22;20002;-88
2022/10/22 01:47:32;;;;;;;23.00;2.97;;;;;;;;;;6268272;22;20207;-88
2022/10/22 01:50:13;;;;;;;25.75;3.72;;;;;;;;;;6208928;22;20015;-88
2022/10/22 01:52:49;;;;;;;25.35;3.95;;;;;;;;;;6241900;22;20007;-88
2022/10/22 01:55:35;;;;;;;22.60;3.15;;;;;;;;;;6241274;22;20506;-88
2022/10/22 01:58:02;;;;;;;19.00;3.22;;;;;;;;;;6240916;22;20185;-87
2022/10/22 02:00:29;;;;;;;22.02;4.35;;;;;;;;;;6241635;22;20004;-88
2022/10/22 02:02:59;;;;;;;22.05;3.60;;;;;;;;;;6266882;22;20011;-89
2022/10/22 02:05:37;;;;;;;26.23;3.47;;;;;;;;;;6241153;22;20011;-88
2022/10/22 02:08:12;;;;;;;24.52;3.80;;;;;;;;;;6241388;22;20000;-87
2022/10/22 02:10:39;;;;;;;25.48;3.97;;;;;;;;;;6240981;22;20071;-88
2022/10/22 02:13:11;;;;;;;23.67;3.85;;;;;;;;;;6242103;22;20780;-89
2022/10/22 02:15:38;;;;;;;21.15;3.22;;;;;;;;;;6241584;22;20008;-88
2022/10/22 02:18:06;;;;;;;27.08;4.03;;;;;;;;;;6273179;22;20064;-88
2022/10/22 02:20:33;;;;;;;30.27;4.65;;;;;;;;;;6329682;22;19998;-88
2022/10/22 02:23:00;;;;;;;27.60;4.05;;;;;;;;;;6306826;22;20014;-88
2022/10/22 02:25:29;;;;;;;19.45;3.10;;;;;;;;;;6307406;22;20381;-88
2022/10/22 02:27:58;;;;;;;28.30;4.03;;;;;;;;;;6306640;22;20022;-87
2022/10/22 02:30:24;;;;;;;26.67;3.55;;;;;;;;;;6306316;22;20090;-88
2022/10/22 02:32:57;;;;;;;27.05;3.83;;;;;;;;;;6306879;22;20007;-87
2022/10/22 02:35:25;;;;;;;23.17;3.35;;;;;;;;;;6334360;22;20014;-88
2022/10/22 02:37:53;;;;;;;28.35;4.00;;;;;;;;;;6307143;22;20067;-88
2022/10/22 02:40:19;;;;;;;26.60;3.83;;;;;;;;;;6307114;22;20385;-88
2022/10/22 02:42:52;;;;;;;21.67;3.35;;;;;;;;;;6308052;22;19999;-88
2022/10/22 02:45:18;;;;;;;18.95;2.80;;;;;;;;;;6307244;22;20465;-88
2022/10/22 02:47:45;;;;;;;23.63;3.92;;;;;;;;;;6307789;22;20007;-88
2022/10/22 02:50:11;;;;;;;20.40;3.58;;;;;;;;;;6331300;22;20006;-88
2022/10/22 02:52:37;;;;;;;31.20;3.88;;;;;;;;;;6307733;22;20059;-88
2022/10/22 02:55:04;;;;;;;25.63;3.92;;;;;;;;;;6332347;22;20047;-89
2022/10/22 02:57:30;;;;;;;24.30;3.67;;;;;;;;;;6307858;22;20382;-89
2022/10/22 02:59:56;;;;;;;28.17;4.30;;;;;;;;;;6307345;22;20053;-88
2022/10/22 03:02:22;;;;;;;28.55;4.18;;;;;;;;;;6306295;22;20064;-87
2022/10/22 03:04:48;;;;;;;20.45;3.55;;;;;;;;;;6307303;22;19999;-88
2022/10/22 03:07:15;;;;;;;19.85;4.35;;;;;;;;;;6335832;22;20006;-88
2022/10/22 03:09:41;;;;;;;16.60;3.55;;;;;;;;;;6306772;22;20013;-87
2022/10/22 03:12:08;;;;;;;22.27;3.40;;;;;;;;;;6306774;22;20009;-87
2022/10/22 03:14:35;;;;;;;24.45;3.85;;;;;;;;;;6306127;22;20010;-87
2022/10/22 03:17:06;;;;;;;27.80;4.25;;;;;;;;;;6306219;22;19999;-87
2022/10/22 03:19:33;;;;;;;22.63;3.65;;;;;;;;;;6306119;22;20013;-88
2022/10/22 03:22:03;;;;;;;34.65;3.50;;;;;;;;;;6306366;22;19999;-88
2022/10/22 03:24:30;;;;;;;20.77;3.28;;;;;;;;;;6331107;22;20086;-89
2022/10/22 03:26:57;;;;;;;28.38;3.72;;;;;;;;;;6306160;22;20423;-88
2022/10/22 03:29:28;;;;;;;20.05;2.85;;;;;;;;;;6330176;22;20512;-87
2022/10/22 03:31:54;;;;;;;17.17;3.20;;;;;;;;;;6306341;22;19999;-88
2022/10/22 03:34:22;;;;;;;24.83;3.30;;;;;;;;;;6306930;22;20086;-88
2022/10/22 03:36:49;;;;;;;18.58;3.40;;;;;;;;;;6307138;22;20026;-87
2022/10/22 03:39:21;;;;;;;24.30;3.80;;;;;;;;;;6305103;22;20086;-87
2022/10/22 03:41:48;;;;;;;21.40;3.53;;;;;;;;;;6306441;22;20442;-88
2022/10/22 03:44:15;;;;;;;18.45;3.15;;;;;;;;;;6305753;22;20013;-88
2022/10/22 03:46:41;;;;;;;22.25;3.58;;;;;;;;;;6330682;22;20587;-88
2022/10/22 03:49:07;;;;;;;20.25;2.95;;;;;;;;;;6306249;22;20034;-88
2022/10/22 03:51:34;;;;;;;15.23;2.75;;;;;;;;;;6306419;22;20003;-87
2022/10/22 03:54:00;;;;;;;22.07;3.13;;;;;;;;;;6306460;22;20014;-88
2022/10/22 03:56:26;;;;;;;27.40;3.10;;;;;;;;;;6306263;22;20011;-88
2022/10/22 03:58:55;;;;;;;13.93;3.10;;;;;;;;;;6303773;22;20021;-87
2022/10/22 04:01:21;;;;;;;18.75;3.50;;;;;;;;;;6307044;22;20007;-88
2022/10/22 04:03:47;;;;;;;18.25;3.10;;;;;;;;;;6307835;22;20014;-88
2022/10/22 04:06:13;;;;;;;22.08;3.38;;;;;;;;;;6306140;22;20029;-88
2022/10/22 04:08:40;;;;;;;15.70;2.75;;;;;;;;;;6306250;22;20003;-88
2022/10/22 04:11:07;;;;;;;22.13;3.47;;;;;;;;;;6332452;22;20070;-88
2022/10/22 04:13:34;;;;;;;18.38;3.10;;;;;;;;;;6303049;22;20029;-90
2022/10/22 04:16:13;;;;;;;22.50;3.30;;;;;;;;;;6268082;22;20003;-88
2022/10/22 04:18:40;;;;;;;16.42;2.80;;;;;;;;;;6242852;22;20351;-88
2022/10/22 04:21:07;;;;;;;17.30;3.35;;;;;;;;;;6268250;22;20007;-87
2022/10/22 04:23:33;;;;;;;19.30;3.25;;;;;;;;;;6268430;22;20007;-90
2022/10/22 04:26:04;;;;;;;19.35;3.45;;;;;;;;;;6268818;22;20000;-87
2022/10/22 04:28:30;;;;;;;16.30;2.92;;;;;;;;;;6242745;22;20026;-87
2022/10/22 04:30:56;;;;;;;21.23;3.38;;;;;;;;;;6243400;22;20554;-88
2022/10/22 04:33:22;;;;;;;19.83;3.10;;;;;;;;;;6269519;22;20038;-87
2022/10/22 04:35:48;;;;;;;17.30;2.78;;;;;;;;;;6268983;22;20372;-88
2022/10/22 04:38:14;;;;;;;16.40;2.88;;;;;;;;;;6268678;22;20038;-88
2022/10/22 04:40:40;;;;;;;21.10;4.40;;;;;;;;;;6269316;22;20003;-89
2022/10/22 04:43:06;;;;;;;19.63;3.30;;;;;;;;;;6243129;22;20014;-89
2022/10/22 04:45:33;;;;;;;23.10;3.58;;;;;;;;;;6268362;22;20000;-87
2022/10/22 04:47:59;;;;;;;18.15;3.30;;;;;;;;;;6301029;22;20006;-88
2022/10/22 04:50:25;;;;;;;25.67;3.45;;;;;;;;;;6333452;22;20002;-87
2022/10/22 04:52:51;;;;;;;23.55;3.70;;;;;;;;;;6333933;22;20450;-87
2022/10/22 04:55:17;;;;;;;24.17;3.70;;;;;;;;;;6333294;22;20439;-87
2022/10/22 04:57:43;;;;;;;26.40;3.72;;;;;;;;;;6333090;22;20622;-87
2022/10/22 05:00:10;;;;;;;28.73;3.60;;;;;;;;;;6333466;22;20427;-88
2022/10/22 05:02:36;;;;;;;25.83;3.63;;;;;;;;;;6333399;22;20064;-88
2022/10/22 05:05:02;;;;;;;23.42;3.53;;;;;;;;;;6333128;22;20069;-89
2022/10/22 05:07:28;;;;;;;17.95;3.08;;;;;;;;;;6304690;22;20364;-88
2022/10/22 05:09:54;;;;;;;21.85;3.28;;;;;;;;;;6333953;22;20006;-88
2022/10/22 05:12:20;;;;;;;21.10;3.17;;;;;;;;;;6334030;22;20010;-87
2022/10/22 05:14:46;;;;;;;19.08;3.28;;;;;;;;;;6305216;22;19999;-90
2022/10/22 05:17:12;;;;;;;18.02;3.17;;;;;;;;;;6332834;22;20021;-89
2022/10/22 05:19:38;;;;;;;16.85;3.22;;;;;;;;;;6332433;22;20331;-88
2022/10/22 05:22:05;;;;;;;19.70;3.53;;;;;;;;;;6332330;22;20043;-87
2022/10/22 05:24:32;;;;;;;16.85;2.90;;;;;;;;;;6332843;22;20010;-87
2022/10/22 05:26:58;;;;;;;25.90;3.33;;;;;;;;;;6305393;22;20400;-89
2022/10/22 05:29:25;;;;;;;21.92;3.50;;;;;;;;;;6333958;22;20026;-88
2022/10/22 05:31:52;;;;;;;16.88;2.97;;;;;;;;;;6306366;22;20007;-88
2022/10/22 05:34:18;;;;;;;21.98;3.45;;;;;;;;;;6332687;22;19995;-88
2022/10/22 05:36:44;;;;;;;20.08;3.00;;;;;;;;;;6305977;22;20002;-89
2022/10/22 05:39:11;;;;;;;16.58;2.50;;;;;;;;;;6332707;22;20112;-89
2022/10/22 05:41:37;;;;;;;17.35;2.90;;;;;;;;;;6312519;22;20048;-88
2022/10/22 05:44:04;;;;;;;16.25;2.70;;;;;;;;;;6348877;22;19998;-88
2022/10/22 05:46:32;;;;;;;21.92;3.65;;;;;;;;;;6343661;22;20022;-88
2022/10/22 05:48:59;;;;;;;20.08;3.38;;;;;;;;;;6343137;22;20025;-89
2022/10/22 05:51:27;;;;;;;20.70;3.53;;;;;;;;;;6306542;22;20316;-91
2022/10/22 05:53:54;;;;;;;19.37;3.27;;;;;;;;;;6335905;22;20010;-90
2022/10/22 05:56:21;;;;;;;24.75;4.07;;;;;;;;;;6307250;22;20052;-91
2022/10/22 05:58:47;;;;;;;17.40;2.85;;;;;;;;;;6332915;22;20377;-89
2022/10/22 06:01:17;;;;;;;18.52;3.20;;;;;;;;;;6325855;22;20379;-88
2022/10/22 06:03:44;;;;;;;16.80;2.80;;;;;;;;;;6330383;22;20021;-89
2022/10/22 06:06:28;;;;;;;27.60;3.97;;;;;;;;;;6331197;22;20312;-88
2022/10/22 06:08:55;;;;;;;23.73;3.40;;;;;;;;;;6333350;22;20006;-85
2022/10/22 06:11:22;;;;;;;17.70;2.58;;;;;;;;;;6305125;22;20010;-89
2022/10/22 06:13:48;;;;;;;15.77;2.72;;;;;;;;;;6332992;22;20235;-87
2022/10/22 06:16:14;;;;;;;20.88;3.63;;;;;;;;;;6333715;22;20002;-88
2022/10/22 06:18:40;;;;;;;21.55;3.70;;;;;;;;;;6333214;22;20434;-92
2022/10/22 06:21:08;;;;;;;18.83;3.22;;;;;;;;;;6306728;22;20026;-89
2022/10/22 06:23:34;;;;;;;21.73;3.55;;;;;;;;;;6332329;22;20308;-87
2022/10/22 06:26:00;;;;;;;23.33;3.95;;;;;;;;;;6332782;22;20018;-88
2022/10/22 06:28:27;;;;;;;21.13;3.65;;;;;;;;;;6331764;22;20029;-88
2022/10/22 06:30:53;;;;;;;22.05;3.70;;;;;;;;;;6329857;22;20023;-92
2022/10/22 06:33:19;;;;;;;21.33;4.00;;;;;;;;;;6332766;22;20580;-89
2022/10/22 06:35:47;;;;;;;25.98;4.35;;;;;;;;;;6303734;22;20002;-89
2022/10/22 06:38:19;;;;;;;19.90;4.28;;;;;;;;;;6331944;22;20042;-88
2022/10/22 06:41:26;;;;;;;26.15;4.80;;;;;;;;;;6336650;22;19995;-93
2022/10/22 06:44:25;;;;;;;;;;;;;;;;;;;;;
2022/10/22 06:46:59;;;;;;;27.20;4.97;;;;;;;;;;6299133;22;20003;-93
2022/10/22 06:49:25;;;;;;;27.02;5.72;;;;;;;;;;6318538;22;19999;-91
2022/10/22 06:55:01;;;;;;;29.98;5.80;;;;;;;;;;6317686;22;20007;-89
2022/10/22 06:57:27;;;;;;;25.80;5.05;;;;;;;;;;6335170;22;20030;-88
2022/10/22 06:59:53;;;;;;;30.80;6.32;;;;;;;;;;6333851;22;19999;-87
2022/10/22 07:02:19;;;;;;;19.52;4.75;;;;;;;;;;6334335;22;20299;-87
2022/10/22 07:04:45;;;;;;;21.30;4.70;;;;;;;;;;6332813;22;20069;-87
2022/10/22 07:07:11;;;;;;;17.63;5.03;;;;;;;;;;6332479;22;20003;-89
2022/10/22 07:09:38;;;;;;;20.52;4.68;;;;;;;;;;6334493;22;20007;-89
2022/10/22 07:12:04;;;;;;;24.48;5.10;;;;;;;;;;6306956;22;20003;-88
2022/10/22 07:14:30;;;;;;;20.08;4.70;;;;;;;;;;6334836;22;20002;-88
2022/10/22 07:16:56;;;;;;;20.63;4.78;;;;;;;;;;6307897;22;20451;-89
2022/10/22 07:19:22;;;;;;;22.80;5.03;;;;;;;;;;6334410;22;20086;-87
2022/10/22 07:21:48;;;;;;;21.05;5.25;;;;;;;;;;6307352;22;20501;-89
2022/10/22 07:24:14;;;;;;;41.83;6.45;;;;;;;;;;6306180;22;20003;-89
2022/10/22 07:26:40;;;;;;;20.70;5.97;;;;;;;;;;6302946;22;20003;-89
2022/10/22 07:29:06;;;;;;;20.73;5.78;;;;;;;;;;6333762;22;20002;-89
2022/10/22 07:31:32;;;;;;;30.95;6.28;;;;;;;;;;6334571;22;20026;-88
2022/10/22 07:33:58;;;;;;;27.80;7.13;;;;;;;;;;6335888;22;19995;-90
2022/10/22 07:36:25;;;;;;;26.75;6.35;;;;;;;;;;6334911;22;20100;-87
2022/10/22 07:38:55;;;;;;;42.60;7.38;;;;;;;;;;6307050;22;20064;-90
2022/10/22 07:41:22;;;;;;;26.27;5.63;;;;;;;;;;6334729;22;20306;-90
2022/10/22 07:43:48;;;;;;;25.63;6.22;;;;;;;;;;6334947;22;19999;-89
2022/10/22 07:46:14;;;;;;;26.73;5.53;;;;;;;;;;6333577;22;20006;-89
2022/10/22 07:48:40;;;;;;;27.30;6.18;;;;;;;;;;6307229;22;20003;-89
2022/10/22 07:51:07;;;;;;;31.85;5.68;;;;;;;;;;6307239;22;20002;-90
2022/10/22 07:53:33;;;;;;;40.72;6.13;;;;;;;;;;6307045;22;20080;-90
2022/10/22 07:55:59;;;;;;;19.15;5.80;;;;;;;;;;6335793;22;20006;-90
2022/10/22 07:58:25;;;;;;;40.95;5.90;;;;;;;;;;6334636;22;20018;-89
2022/10/22 08:00:54;;;;;;;32.78;6.00;;;;;;;;;;6334740;22;20073;-90
2022/10/22 08:03:20;;;;;;;33.20;6.25;;;;;;;;;;6307226;22;20030;-90
2022/10/22 08:05:46;;;;;;;28.30;6.82;;;;;;;;;;6333790;22;19995;-89
2022/10/22 08:08:13;;;;;;;27.65;5.70;;;;;;;;;;6306829;22;20007;-91
2022/10/22 08:10:39;;;;;;;26.90;6.07;;;;;;;;;;6306834;22;19999;-89
2022/10/22 08:13:05;;;;;;;28.73;6.28;;;;;;;;;;6334753;22;20373;-90
2022/10/22 08:15:31;;;;;;;30.20;6.68;;;;;;;;;;6335736;22;20002;-89
2022/10/22 08:17:57;;;;;;;34.42;6.38;;;;;;;;;;6334295;22;20379;-88
2022/10/22 08:20:23;;;;;;;31.42;6.38;;;;;;;;;;6306756;22;20375;-91
2022/10/22 08:22:50;;;;;;;24.48;5.25;;;;;;;;;;6334427;22;20006;-90
2022/10/22 08:25:17;;;;;;;33.75;6.90;;;;;;;;;;6334684;22;20003;-89
2022/10/22 08:27:43;;;;;;;32.63;6.93;;;;;;;;;;6334604;22;20079;-90
2022/10/22 08:30:09;;;;;;;26.73;6.18;;;;;;;;;;6315012;22;20002;-90
2022/10/22 08:32:36;;;;;;;32.78;7.15;;;;;;;;;;6352040;22;20010;-89
2022/10/22 08:35:02;;;;;;;26.67;6.63;;;;;;;;;;6351941;22;19995;-90
2022/10/22 08:37:28;;;;;;;25.38;5.60;;;;;;;;;;6348022;22;20035;-90
2022/10/22 08:39:54;;;;;;;26.80;6.13;;;;;;;;;;6307042;22;20067;-90
2022/10/22 08:42:35;;;;;;;28.92;6.50;;;16.50;99.90;;;;;;6334481;22;19999;-88
2022/10/22 08:45:44;;;;;;;30.60;6.90;;;17.10;99.90;;;;;;6307791;22;20003;-90
2022/10/22 08:48:24;;;;;;;30.63;7.32;;;16.70;99.90;;;;;;6183722;23;20036;-90
2022/10/22 08:50:53;;;;;;;30.90;6.60;;;16.70;99.90;;;;;;6296355;22;20005;-90
2022/10/22 08:53:24;;;;;;;26.80;6.20;;;16.70;99.90;;;;;;6307011;22;20002;-90
2022/10/22 08:55:52;;;;;;;30.10;6.32;;;16.80;99.90;;;;;;6334345;22;20450;-90
2022/10/22 08:58:27;;;;;;;21.10;5.38;;;16.70;99.90;;;;;;6334010;22;20018;-90
2022/10/22 09:01:04;;;;;;;26.80;5.68;;;16.90;99.90;;;;;;6305917;22;20511;-90
2022/10/22 09:03:35;;;;;;;23.92;5.38;;;17.00;99.90;;;;;;6306876;22;20438;-89
2022/10/22 09:06:10;;;;;;;34.20;6.10;;;17.00;99.90;;;;;;6307463;22;20009;-88
2022/10/22 09:08:37;;;;;;;31.27;5.90;;;17.10;99.90;;;;;;6334233;22;20007;-89
2022/10/22 09:11:20;;;;;;;28.55;5.60;;;17.00;99.90;;;;;;6306621;22;20025;-89
2022/10/22 09:13:46;;;;;;;28.08;5.75;;;;;;;;;;6334373;22;20431;-89
2022/10/22 09:16:23;;;;;;;25.05;4.68;;;17.40;99.90;;;;;;6334159;22;19995;-89
2022/10/22 09:19:16;;;;;;;30.48;5.85;;;17.40;99.90;;;;;;6306213;22;20099;-89
2022/10/22 09:21:47;;;;;;;29.80;5.82;;;17.40;99.90;;;;;;6334343;22;20046;-90
2022/10/22 09:24:35;;;;;;;23.63;4.78;;;17.40;99.90;;;;;;6334158;22;20002;-89
2022/10/22 09:27:09;;;;;;;25.08;5.32;;;17.40;99.90;;;;;;6307035;22;20395;-91
2022/10/22 09:29:34;;;;;;;27.80;4.70;;;17.40;99.90;;;;;;6334496;22;20369;-89
2022/10/22 09:32:00;;;;;;;26.98;5.13;;;17.40;99.90;;;;;;6306432;22;20023;-90
2022/10/22 09:34:28;;;;;;;24.75;5.20;;;17.50;99.90;;;;;;6338407;22;20005;-90
2022/10/22 09:36:58;;;;;;;23.38;4.95;;;17.60;99.90;;;;;;6342269;22;20023;-89
2022/10/22 09:39:33;;;;;;;30.70;5.45;;;17.70;99.90;;;;;;6316176;22;20039;-91
2022/10/22 09:41:59;;;;;;;23.83;5.70;;;;;;;;;;6309018;22;20005;-91
2022/10/22 09:44:25;;;;;;;28.88;5.97;;;;;;;;;;6334068;22;20326;-90
2022/10/22 09:46:51;;;;;;;28.48;6.20;;;;;;;;;;6334054;22;20132;-90
2022/10/22 09:49:23;;;;;;;23.25;5.68;;;17.80;99.90;;;;;;6306189;22;20010;-90
2022/10/22 09:51:58;;;;;;;26.63;6.25;;;17.80;99.90;;;;;;6306164;22;20003;-91
2022/10/22 09:54:36;;;;;;;25.67;5.70;;;18.00;99.90;;;;;;6333924;22;20334;-89
2022/10/22 09:57:15;;;;;;;;;;;17.90;99.90;;;;;;6334524;22;20003;-91
2022/10/22 09:59:42;;;;;;;23.77;5.70;;;18.20;99.90;;;;;;6333642;22;20310;-90
2022/10/22 10:02:08;;;;;;;25.95;5.55;;;18.10;99.90;;;;;;6306384;22;20003;-90
2022/10/22 10:04:40;;;;;;;27.80;6.28;;;18.20;99.90;;;;;;6306918;22;20013;-89
2022/10/22 10:07:24;;;;;;;27.48;5.93;;;18.20;99.90;;;;;;6334633;22;19995;-90
2022/10/22 10:09:52;;;;;;;22.67;5.03;;;18.30;99.90;;;;;;6333926;22;20010;-89
2022/10/22 10:12:24;;;;;;;30.33;5.38;;;18.50;99.90;;;;;;6333774;22;20006;-91
2022/10/22 10:15:04;;;;;;;19.98;4.75;;;18.50;99.90;;;;;;6333404;22;20032;-89
2022/10/22 10:17:50;;;;;;;21.25;4.40;;;18.60;99.90;;;;;;6333478;22;20017;-90
2022/10/22 10:20:40;;;;;;;22.83;4.20;;;18.70;99.90;;;;;;6334026;22;19995;-90
2022/10/22 10:23:11;;;;;;;20.55;3.97;;;18.80;99.90;;;;;;6334839;22;20005;-89
2022/10/22 10:25:54;;;;;;;18.98;3.53;;;20.60;99.90;;;;;;6334633;22;19999;-90
2022/10/22 10:29:11;;;;;;;24.25;3.67;;;18.90;99.90;;;;;;6333977;22;20078;-90
2022/10/22 10:32:16;;;;;;;18.07;3.43;;;18.90;99.90;;;;;;6266229;22;20007;-91
2022/10/22 10:35:20;;;;;;;22.55;3.53;;;18.90;99.90;;;;;;6333809;22;20006;-90
2022/10/22 10:37:59;;;;;;;17.30;3.03;;;18.90;99.90;;;;;;6333468;22;19999;-91
2022/10/22 10:40:37;;;;;;;26.85;4.07;;;19.00;99.90;;;;;;6333587;22;20056;-90
2022/10/22 10:43:14;;;;;;;19.92;3.28;;;19.10;99.90;;;;;;6306434;22;20381;-90
2022/10/22 10:45:45;;;;;;;21.50;3.90;;;19.00;99.90;;;;;;6308185;22;20003;-91
2022/10/22 10:48:34;;;;;;;26.55;3.85;;;19.00;99.90;;;;;;6335553;22;20010;-91
2022/10/22 10:51:11;;;;;;;24.92;4.40;;;19.00;99.90;;;;;;6335298;22;20105;-90
2022/10/22 10:53:55;;;;;;;21.35;3.30;;;19.00;99.90;;;;;;6336488;22;20061;-89
2022/10/22 10:56:39;;;;;;;22.25;4.13;;;19.20;99.90;;;;;;6335255;22;20435;-90
2022/10/22 10:59:40;;;;;;;19.83;3.45;;;19.10;99.90;;;;;;6334997;22;20007;-90
2022/10/22 11:02:20;;;;;;;22.90;3.60;;;19.20;99.90;;;;;;6270927;22;20003;-90
2022/10/22 11:04:55;;;;;;;18.38;3.33;;;19.30;99.90;;;;;;6335461;22;19999;-90
2022/10/22 11:07:32;;;;;;;21.17;3.33;;;19.20;99.90;;;;;;6335312;22;20029;-90
2022/10/22 11:10:15;;;;;;;19.15;2.72;;;19.20;99.90;;;;;;6335564;22;20006;-90
2022/10/22 11:12:47;;;;;;;27.70;3.83;;;19.40;99.90;;;;;;6335931;22;20391;-90
2022/10/22 11:15:34;;;;;;;18.05;2.83;;;19.30;99.90;;;;;;6307343;22;20013;-91
2022/10/22 11:18:12;;;;;;;17.33;3.00;;;19.40;99.90;;;;;;6346137;22;20462;-90
2022/10/22 11:20:52;;;;;;;22.17;2.72;;;19.40;99.90;;;;;;6353441;22;20483;-90
2022/10/22 11:23:48;;;;;;;17.85;3.03;;;19.40;99.90;;;;;;6353281;22;20049;-89
2022/10/22 11:26:37;;;;;;;23.20;3.25;;;19.50;99.90;;;;;;6284122;22;20423;-90
2022/10/22 11:29:09;;;;;;;17.40;2.58;;;19.60;99.90;;;;;;6335101;22;20006;-91
2022/10/22 11:31:36;;;;;;;16.67;2.45;;;19.70;99.90;;;;;;6307763;22;20006;-90
2022/10/22 11:34:39;;;;;;;15.10;2.65;;;19.90;99.90;;;;;;6335092;22;20003;-90
2022/10/22 11:37:05;;;;;;;21.25;2.60;;;19.80;99.90;;;;;;6281680;22;20031;-91
2022/10/22 11:39:39;;;;;;;18.30;2.95;;;20.10;99.90;;;;;;6334723;22;20029;-90
2022/10/22 11:42:30;;;;;;;23.00;3.58;;;20.10;99.90;;;;;;6307271;22;20335;-89
2022/10/22 11:45:03;;;;;;;17.33;2.55;;;20.20;99.90;;;;;;6334826;22;20002;-90
2022/10/22 11:47:33;;;;;;;17.45;2.97;;;20.40;99.90;;;;;;6335119;22;20003;-91
2022/10/22 11:50:23;;;;;;;16.65;3.30;;;20.40;99.90;;;;;;6335308;22;20319;-91
2022/10/22 11:53:03;;;;;;;12.02;2.55;;;20.40;99.90;;;;;;6335072;22;20052;-91
2022/10/22 11:55:54;;;;;;;14.65;3.25;;;20.40;99.90;;;;;;6334737;22;20066;-90
2022/10/22 11:58:41;;;;;;;14.05;2.13;;;20.30;99.90;;;;;;6306631;22;20015;-90
2022/10/22 12:01:07;;;;;;;8.32;2.05;;;20.40;99.90;;;;;;6307174;22;20009;-91
2022/10/22 12:03:33;;;;;;;11.93;2.28;;;20.30;99.90;;;;;;6307180;22;20442;-91
2022/10/22 12:06:11;;;;;;;13.60;2.55;;;20.20;99.90;;;;;;6307067;22;20060;-91
2022/10/22 12:08:49;;;;;;;12.50;1.98;;;20.10;99.90;;;;;;6307454;22;20011;-90
2022/10/22 12:11:18;;;;;;;;;;;20.00;99.90;;;;;;6311012;22;20019;-89
2022/10/22 12:14:13;;;;;;;14.02;2.53;;;19.00;99.90;;;;;;6345946;22;19952;-91
2022/10/22 12:16:52;;;;;;;14.65;2.25;;;19.80;99.90;;;;;;6344879;22;20026;-90
2022/10/22 12:19:26;;;;;;;13.30;2.15;;;19.70;99.90;;;;;;6311058;22;20011;-90
2022/10/22 12:22:09;;;;;;;15.02;2.30;;;19.80;99.90;;;;;;6334727;22;20051;-89
2022/10/22 12:24:48;;;;;;;12.02;2.00;;;19.80;99.90;;;;;;6334480;22;20275;-89
2022/10/22 12:27:19;;;;;;;16.20;2.63;;;19.90;99.90;;;;;;6335121;22;20070;-89
2022/10/22 12:29:45;;;;;;;11.80;2.38;;;;;;;;;;6335667;22;20005;-89
2022/10/22 12:32:14;;;;;;;10.10;1.83;;;20.00;99.90;;;;;;6307752;22;20047;-90
2022/10/22 12:34:51;;;;;;;12.57;1.98;;;19.90;99.90;;;;;;6334507;22;20025;-89
2022/10/22 12:37:17;;;;;;;14.00;2.57;;;;;;;;;;6306591;22;19999;-89
2022/10/22 12:39:44;;;;;;;11.73;2.63;;;20.10;99.90;;;;;;6307608;22;20015;-90
2022/10/22 12:42:16;;;;;;;11.43;2.40;;;20.10;99.90;;;;;;6306902;22;20018;-90
2022/10/22 12:44:43;;;;;;;13.95;2.33;;;20.10;99.90;;;;;;6335521;22;19998;-90
2022/10/22 12:47:17;;;;;;;12.13;2.10;;;20.20;99.90;;;;;;6333936;22;20339;-89
2022/10/22 12:49:48;;;;;;;10.35;2.20;;;20.20;99.90;;;;;;6307108;22;20007;-91
2022/10/22 12:52:20;;;;;;;13.95;2.33;;;20.20;99.90;;;;;;6335314;22;20002;-90
2022/10/22 12:54:49;;;;;;;13.80;2.47;;;20.30;99.90;;;;;;6335579;22;20076;-90
2022/10/22 12:57:17;;;;;;;12.85;2.35;;;20.40;99.90;;;;;;6307347;22;20385;-90
2022/10/22 12:59:47;;;;;;;10.27;2.35;;;20.50;99.90;;;;;;6307377;22;20099;-91
2022/10/22 13:02:26;;;;;;;12.88;2.55;;;20.40;99.90;;;;;;6307833;22;20003;-90
2022/10/22 13:05:32;;;;;;;9.95;2.50;;;20.40;99.90;;;;;;6334165;22;20006;-90
2022/10/22 13:08:04;;;;;;;12.30;2.20;;;20.40;99.90;;;;;;6183435;23;20081;-89
2022/10/22 13:10:48;;;;;;;9.40;2.10;;;20.40;99.90;;;;;;6318897;22;20237;-90
2022/10/22 13:13:31;;;;;;;12.85;2.38;;;20.30;99.90;;;;;;6335335;22;19994;-89
2022/10/22 13:16:16;;;;;;;10.50;1.67;;;20.30;99.90;;;;;;6333967;22;20030;-89
2022/10/22 13:18:42;;;;;;;9.38;2.53;;;20.30;99.90;;;;;;6306302;22;20060;-90
2022/10/22 13:21:34;;;;;;;18.02;2.35;;;20.30;99.90;;;;;;6333417;22;20003;-90
2022/10/22 13:24:19;;;;;;;7.95;2.10;;;20.40;99.90;;;;;;6333604;22;20026;-89
2022/10/22 13:26:49;;;;;;;8.35;2.33;;;20.30;99.90;;;;;;6335090;22;19999;-91
2022/10/22 13:29:18;;;;;;;10.00;2.38;;;20.30;99.90;;;;;;6335085;22;20003;-90
2022/10/22 13:31:45;;;;;;;10.80;2.17;;;20.40;99.90;;;;;;6306613;22;20065;-90
2022/10/22 13:34:15;;;;;;;13.18;2.63;;;20.30;99.90;;;;;;6334096;22;20460;-89
2022/10/22 13:36:41;;;;;;;8.90;1.75;;;20.40;99.90;;;;;;6333962;22;20033;-89
2022/10/22 13:39:19;;;;;;;10.85;2.10;;;20.50;99.90;;;;;;6333828;22;20011;-90
2022/10/22 13:41:45;;;;;;;9.13;1.70;;;20.50;99.90;;;;;;6307108;22;20003;-90
2022/10/22 13:44:11;;;;;;;10.95;2.03;;;20.60;99.90;;;;;;6306328;22;20007;-90
2022/10/22 13:46:41;;;;;;;8.45;2.00;;;20.60;99.90;;;;;;6305474;22;20007;-90
2022/10/22 13:49:16;;;;;;;12.93;2.28;;;20.60;99.90;;;;;;6306221;22;20006;-90
2022/10/22 13:51:42;;;;;;;14.45;2.60;;;20.50;99.90;;;;;;6333849;22;20006;-89
2022/10/22 13:54:19;;;;;;;9.18;1.98;;;20.50;99.90;;;;;;6306024;22;20348;-90
2022/10/22 13:56:46;;;;;;;7.40;1.58;;;;;;;;;;6306728;22;20066;-89
2022/10/22 13:59:12;;;;;;;7.18;1.67;;;20.50;99.90;;;;;;6305945;22;20015;-89
2022/10/22 14:01:38;;;;;;;13.73;2.40;;;20.50;99.90;;;;;;6306261;22;20006;-92
2022/10/22 14:04:06;;;;;;;9.85;2.00;;;20.40;99.90;;;;;;6333881;22;19999;-90
2022/10/22 14:06:32;;;;;;;;;;;20.30;99.90;;;;;;6334345;22;20000;-90
2022/10/22 14:09:02;;;;;;;10.43;2.00;;;20.20;99.90;;;;;;6311555;22;19898;-90
2022/10/22 14:11:29;;;;;;;9.85;1.70;;;20.20;99.90;;;;;;6351828;22;19995;-90
2022/10/22 14:13:55;;;;;;;7.65;2.00;;;20.50;99.90;;;;;;6349389;22;20025;-89